Jumpertown, Mississippi
Current Conditions -  °F | °C
As of 6:15 AM on Friday 28 Nov 2014 (Local Time) from KCRX Reporting Station
NA  
Wind Chill: -4°   Ceiling: NA
Heat Index: -4°   Visibility: NA
Dew Point: -6°   Wind: 0mph
Humidity: 86%   Direction: NA
Pressure: 30.43"   Gusts: NA
Location:  34.6741°N, 88.5234°W
Report Text: KCRX 281215Z AUTO 00000KT M04/M06 A3043 RMK AO2
Loading
Personal Weather Stations






























Interactive Weather Map New forecast layout! Learn more

10-Day Weather Forecast

Advertisements
Track Severe Weather on mobile